Flight Track Log - Related Links

Times and Time Zones

All times are in EDT time to prevent confusion due to time zone crossing. See the UAL3818 flight status page for this flight to view local times or setup timezone preferences in your user account.

Time Position Orientation Groundspeed Altitude Reporting Facility
EDT Latitude Longitude Course Direction KTS MPH feet Rate Location/Type
Mon 10:31:31 PM 41.9833 -87.8667 78° East 160 184 2,000  Level Chicago TRACON
Mon 10:33:41 PM 42.0347 -87.6919 68° East 263 303 5,700 1,875 Climbing Chicago Center
Mon 10:34:43 PM 42.0478 -87.5861 81° East 283 326 8,000 2,146 Climbing Chicago Center
Mon 10:35:44 PM 42.0608 -87.4786 81° East 289 333 10,100 1,475 Climbing Chicago Center
Mon 10:36:00 PM 42.0812 -87.1637 78° East  Level FlightAware Approximate
Mon 10:36:45 PM 42.0764 -87.3581 80° East 316 364 11,000  Level Chicago Center
Mon 10:37:47 PM 42.0925 -87.2269 81° East 349 402 12,400 1,415 Climbing Chicago Center
Mon 10:38:48 PM 42.1089 -87.0917 81° East 362 417 13,900 1,672 Climbing Chicago Center
Mon 10:39:49 PM 42.1164 -86.9264 86° East 368 423 15,800 1,512 Climbing Chicago Center
Mon 10:40:51 PM 42.1211 -86.7869 87° East 373 429 17,000 1,024 Climbing Chicago Center
Mon 10:41:52 PM 42.1278 -86.6367 87° East 387 445 17,900 984 Climbing Chicago Center
Mon 10:42:53 PM 42.1331 -86.4886 87° East 396 456 19,000 1,024 Climbing Chicago Center
Mon 10:43:55 PM 42.1381 -86.3367 87° East 404 465 20,000 976 Climbing Chicago Center
Mon 10:44:56 PM 42.1428 -86.1817 88° East 412 474 21,000 984 Climbing Chicago Center
Mon 10:45:57 PM 42.1419 -86.0244 90° East 420 483 22,000 934 Climbing Chicago Center
Mon 10:46:58 PM 42.1372 -85.8803 92° East 420 483 22,900 488 Climbing Chicago Center
Mon 10:48:00 PM 42.1319 -85.6869 92° East 430 495 23,000 49 Climbing Chicago Center
Mon 10:49:01 PM 42.1275 -85.5194 92° East 442 509 23,000  Level Chicago Center
Mon 10:50:01 PM 42.1189 -85.3653 94° East 444 511 23,000  Level Cleveland Center
Mon 10:51:01 PM 42.0903 -85.1978 103° East 449 517 23,000  Level Cleveland Center
Mon 10:52:01 PM 42.0592 -85.0361 104° East 449 517 23,000  Level Cleveland Center
Mon 10:53:01 PM 42.0278 -84.8689 104° East 460 529 23,000  Level Cleveland Center
Mon 10:54:01 PM 41.9964 -84.7047 104° East 460 529 23,000  Level Cleveland Center
Mon 10:55:01 PM 41.9631 -84.5267 104° East 455 524 23,000  Level Cleveland Center
Mon 10:56:01 PM 41.9311 -84.3625 105° East 455 524 23,000  Level Cleveland Center
Mon 10:57:01 PM 41.8944 -84.2014 107° East 455 524 23,000  Level Cleveland Center
Mon 10:58:01 PM 41.8642 -84.0381 104° East 455 524 23,000  Level Cleveland Center
Mon 10:59:01 PM 41.8311 -83.8800 106° East 448 516 23,000  Level Cleveland Center
Mon 11:00:01 PM 41.7983 -83.7169 105° East 443 510 23,000 -150 Level Cleveland Center
Mon 11:01:01 PM 41.7669 -83.5594 105° East 443 510 22,700 -600 Descending Cleveland Center
Mon 11:02:01 PM 41.7336 -83.3964 105° East 443 510 21,800 -950 Descending Cleveland Center
Mon 11:03:01 PM 41.7019 -83.2419 105° East 443 510 20,800 -950 Descending Cleveland Center
Mon 11:04:01 PM 41.6697 -83.0906 106° East 438 504 19,900 -933 Descending Cleveland Center
Mon 11:04:31 PM 41.6547 -83.0206 106° East 427 491 19,400 -1,750 Descending Cleveland Center
Mon 11:04:49 PM 41.6431 -82.9728 108° East 427 491 18,500 -2,533 Descending Cleveland Center
Mon 11:06:01 PM 41.6111 -82.8050 104° East 420 483 15,600 -2,682 Descending Cleveland Center
Mon 11:07:01 PM 41.5825 -82.6678 106° East 395 455 12,600 -2,700 Descending Cleveland Center
Mon 11:08:01 PM 41.5556 -82.5367 105° East 375 432 10,200 -1,500 Descending Cleveland Center
Mon 11:09:01 PM 41.5325 -82.4250 105° East 335 386 9,600 -1,050 Descending Cleveland Center
Mon 11:10:01 PM 41.5111 -82.3272 106° East 286 329 8,100 -1,525 Descending Cleveland Center
Mon 11:10:59 PM 41.4917 -82.2297 105° East 275 316 6,600 -1,475 Descending Cleveland Center
Mon 11:11:59 PM 41.4636 -82.1431 113° Southeast 249 287 5,200 -1,388 Descending Cleveland Center
Mon 11:13:00 PM 41.4147 -82.0672 131° Southeast 242 278 3,800 -1,190 Descending Cleveland Center
Mon 11:14:00 PM 41.3736 -82.0108 134° Southeast 204 235 2,800 -1,000 Descending Cleveland Center

Login

Don't have an account? Register now (free) for customized features, flight alerts, and more!